createdAt,value
2017-08-16T00:00:04.949Z,5.07
2017-08-16T00:02:32.458Z,7.30
2017-08-16T00:05:00.032Z,7.62
2017-08-16T00:07:27.775Z,5.40
2017-08-16T00:09:55.304Z,5.35
2017-08-16T00:12:22.830Z,5.82
2017-08-16T00:14:50.423Z,5.87
2017-08-16T00:17:17.946Z,5.70
2017-08-16T00:19:45.478Z,5.20
2017-08-16T00:22:13.095Z,6.05
2017-08-16T00:24:40.636Z,5.90
2017-08-16T00:27:08.151Z,5.72
2017-08-16T00:29:35.779Z,5.47
2017-08-16T00:32:03.350Z,6.12
2017-08-16T00:34:30.872Z,6.37
2017-08-16T00:36:58.436Z,6.07
2017-08-16T00:39:25.982Z,5.85
2017-08-16T00:41:53.526Z,6.72
2017-08-16T00:44:21.079Z,6.32
2017-08-16T00:46:48.603Z,6.37
2017-08-16T00:49:16.166Z,6.47
2017-08-16T00:51:43.731Z,6.30
2017-08-16T00:54:11.269Z,7.03
2017-08-16T00:56:38.805Z,6.53
2017-08-16T00:59:06.387Z,6.05
2017-08-16T01:01:33.930Z,5.57
2017-08-16T01:04:01.473Z,6.10
2017-08-16T01:06:29.199Z,5.95
2017-08-16T01:08:56.742Z,7.22
2017-08-16T01:11:24.253Z,5.62
2017-08-16T01:13:52.023Z,6.75
2017-08-16T01:16:19.566Z,6.25
2017-08-16T01:18:47.117Z,6.05
2017-08-16T01:21:14.846Z,6.32
2017-08-16T01:23:42.372Z,5.68
2017-08-16T01:26:09.896Z,6.87
2017-08-16T01:28:37.437Z,7.20
2017-08-16T01:31:05.006Z,6.10
2017-08-16T01:33:32.583Z,7.12
2017-08-16T01:36:00.165Z,7.80
2017-08-16T01:38:27.698Z,8.75
2017-08-16T01:40:55.228Z,8.52
2017-08-16T01:43:22.814Z,9.13
2017-08-16T01:45:50.342Z,8.45
2017-08-16T01:48:17.903Z,8.07
2017-08-16T01:50:45.483Z,7.43
2017-08-16T01:53:13.038Z,7.65
2017-08-16T01:55:40.565Z,7.47
2017-08-16T01:58:08.124Z,7.00
2017-08-16T02:00:35.673Z,7.00
2017-08-16T02:03:03.230Z,7.40
2017-08-16T02:05:30.836Z,7.35
2017-08-16T02:07:58.390Z,7.72
2017-08-16T02:10:25.933Z,7.40
2017-08-16T02:12:53.493Z,8.10
2017-08-16T02:15:21.064Z,8.07
2017-08-16T02:17:48.567Z,7.80
2017-08-16T02:20:16.272Z,7.70
2017-08-16T02:22:43.803Z,8.00
2017-08-16T02:25:11.331Z,7.43
2017-08-16T02:27:38.895Z,7.20
2017-08-16T02:30:06.448Z,7.75
2017-08-16T02:32:33.986Z,8.05
2017-08-16T02:35:01.522Z,8.00
2017-08-16T02:37:29.069Z,7.78
2017-08-16T02:39:56.586Z,7.87
2017-08-16T02:42:24.178Z,7.95
2017-08-16T02:44:51.717Z,7.50
2017-08-16T02:47:19.258Z,7.62
2017-08-16T02:49:46.845Z,8.02
2017-08-16T02:52:14.346Z,7.70
2017-08-16T02:54:41.917Z,7.90
2017-08-16T02:57:09.469Z,7.20
2017-08-16T02:59:37.030Z,7.62
2017-08-16T03:02:04.566Z,7.00
2017-08-16T03:04:32.140Z,7.80
2017-08-16T03:06:59.676Z,7.95
2017-08-16T03:09:27.228Z,7.60
2017-08-16T03:11:54.912Z,7.30
2017-08-16T03:14:22.461Z,8.18
2017-08-16T03:16:50.004Z,7.40
2017-08-16T03:19:17.542Z,7.55
2017-08-16T03:21:45.070Z,7.50
2017-08-16T03:24:12.934Z,7.70
2017-08-16T03:26:40.518Z,8.10
2017-08-16T03:29:08.047Z,7.72
2017-08-16T03:31:35.600Z,7.00
2017-08-16T03:34:03.308Z,8.02
2017-08-16T03:36:30.841Z,8.50
2017-08-16T03:38:58.383Z,8.10
2017-08-16T03:41:25.958Z,7.25
2017-08-16T03:43:53.522Z,7.90
2017-08-16T03:46:21.059Z,7.47
2017-08-16T03:48:48.643Z,7.90
2017-08-16T03:51:16.200Z,7.90
2017-08-16T03:53:43.766Z,8.68
2017-08-16T03:56:11.378Z,8.30
2017-08-16T03:58:38.910Z,9.10
2017-08-16T04:01:06.435Z,8.32
2017-08-16T04:03:34.017Z,9.10
2017-08-16T04:06:01.557Z,9.38
2017-08-16T04:08:29.111Z,8.40
2017-08-16T04:10:56.819Z,9.10
2017-08-16T04:13:24.373Z,8.30
2017-08-16T04:15:52.745Z,8.90
2017-08-16T04:18:20.391Z,7.87
2017-08-16T04:20:47.940Z,11.23
2017-08-16T04:23:15.523Z,12.48
2017-08-16T04:25:43.101Z,13.27
2017-08-16T04:28:10.617Z,12.88
2017-08-16T04:30:38.183Z,9.98
2017-08-16T04:33:05.800Z,11.95
2017-08-16T04:35:33.364Z,11.12
2017-08-16T04:38:00.865Z,11.80
2017-08-16T04:40:28.424Z,12.65
2017-08-16T04:42:55.936Z,12.23
2017-08-16T04:45:23.499Z,12.40
2017-08-16T04:47:51.234Z,12.88
2017-08-16T04:50:18.930Z,12.77
2017-08-16T04:52:46.491Z,13.50
2017-08-16T04:55:14.052Z,13.75
2017-08-16T04:57:41.586Z,13.00
2017-08-16T05:00:09.137Z,12.35
2017-08-16T05:02:36.722Z,12.77
2017-08-16T05:05:04.268Z,12.52
2017-08-16T05:07:31.816Z,11.75
2017-08-16T05:09:59.543Z,11.85
2017-08-16T05:12:27.087Z,12.20
2017-08-16T05:14:54.641Z,11.38
2017-08-16T05:17:22.330Z,12.50
2017-08-16T05:19:49.860Z,12.02
2017-08-16T05:22:17.342Z,13.20
2017-08-16T05:24:44.997Z,12.07
2017-08-16T05:27:12.535Z,12.15
2017-08-16T05:29:40.076Z,12.15
2017-08-16T05:32:07.687Z,11.38
2017-08-16T05:34:35.276Z,12.55
2017-08-16T05:37:02.810Z,12.45
2017-08-16T05:39:30.351Z,12.73
2017-08-16T05:41:57.920Z,13.15
2017-08-16T05:44:25.482Z,12.75
2017-08-16T05:46:53.057Z,12.45
2017-08-16T05:49:20.599Z,14.07
2017-08-16T05:51:48.263Z,13.60
2017-08-16T05:54:15.928Z,12.82
2017-08-16T05:56:43.705Z,13.80
2017-08-16T05:59:11.313Z,11.95
2017-08-16T06:01:38.915Z,12.15
2017-08-16T06:04:06.642Z,12.48
2017-08-16T06:06:34.169Z,13.30
2017-08-16T06:09:01.691Z,11.90
2017-08-16T06:11:29.263Z,12.32
2017-08-16T06:13:56.823Z,11.35
2017-08-16T06:16:24.408Z,10.40
2017-08-16T06:18:51.962Z,10.85
2017-08-16T06:21:19.494Z,9.23
2017-08-16T06:23:47.141Z,9.65
2017-08-16T06:26:14.700Z,8.00
2017-08-16T06:28:42.253Z,8.63
2017-08-16T06:31:09.874Z,7.93
2017-08-16T06:33:37.449Z,8.48
2017-08-16T06:36:05.012Z,7.97
2017-08-16T06:38:32.650Z,8.48
2017-08-16T06:41:00.197Z,8.25
2017-08-16T06:43:27.707Z,7.53
2017-08-16T06:45:55.466Z,8.07
2017-08-16T06:48:23.014Z,13.20
2017-08-16T06:50:50.556Z,8.73
2017-08-16T06:53:18.126Z,7.47
2017-08-16T06:55:45.649Z,8.50
2017-08-16T06:58:13.225Z,7.97
2017-08-16T07:00:40.989Z,8.13
2017-08-16T07:03:08.530Z,8.80
2017-08-16T07:05:36.071Z,9.02
2017-08-16T07:08:03.632Z,7.70
2017-08-16T07:10:31.210Z,7.87
2017-08-16T07:12:58.800Z,7.80
2017-08-16T07:15:26.339Z,7.57
2017-08-16T07:17:53.900Z,6.85
2017-08-16T07:20:21.485Z,7.18
2017-08-16T07:22:49.055Z,7.90
2017-08-16T07:25:16.649Z,7.40
2017-08-16T07:27:44.216Z,6.72
2017-08-16T07:30:11.767Z,7.57
2017-08-16T07:32:39.321Z,7.78
2017-08-16T07:35:06.851Z,7.25
2017-08-16T07:37:34.607Z,8.30
2017-08-16T07:40:02.170Z,7.00
2017-08-16T07:42:29.703Z,7.50
2017-08-16T07:44:57.305Z,7.25
2017-08-16T07:47:24.884Z,7.07
2017-08-16T07:49:52.426Z,7.37
2017-08-16T07:52:20.144Z,6.87
2017-08-16T07:54:47.735Z,7.65
2017-08-16T07:57:15.303Z,7.95
2017-08-16T07:59:42.892Z,7.68
2017-08-16T08:02:10.421Z,7.45
2017-08-16T08:04:37.977Z,7.60
2017-08-16T08:07:05.713Z,8.45
2017-08-16T08:09:33.261Z,8.73
2017-08-16T08:12:00.788Z,8.30
2017-08-16T08:14:28.415Z,8.15
2017-08-16T08:16:55.978Z,7.93
2017-08-16T08:19:23.546Z,8.45
2017-08-16T08:21:51.448Z,7.82
2017-08-16T08:24:18.985Z,7.47
2017-08-16T08:26:46.562Z,7.30
2017-08-16T08:29:14.322Z,7.50
2017-08-16T08:31:41.806Z,7.10
2017-08-16T08:34:09.385Z,7.10
2017-08-16T08:36:37.159Z,7.80
2017-08-16T08:39:04.711Z,7.72
2017-08-16T08:41:32.258Z,8.20
2017-08-16T08:43:59.825Z,7.80
2017-08-16T08:46:27.404Z,7.90
2017-08-16T08:48:58.380Z,9.05
2017-08-16T08:51:25.994Z,8.00
2017-08-16T08:53:53.531Z,8.60
2017-08-16T08:56:21.043Z,8.63
2017-08-16T08:58:48.625Z,8.18
2017-08-16T09:01:16.181Z,9.65
2017-08-16T09:03:43.715Z,9.43
2017-08-16T09:06:11.495Z,10.70
2017-08-16T09:08:39.038Z,10.30
2017-08-16T09:11:06.632Z,9.48
2017-08-16T09:13:34.271Z,9.55
2017-08-16T09:16:01.787Z,10.82
2017-08-16T09:18:29.331Z,9.77
2017-08-16T09:20:57.111Z,9.75
2017-08-16T09:23:24.740Z,11.98
2017-08-16T09:25:52.274Z,10.75
2017-08-16T09:28:19.910Z,11.68
2017-08-16T09:30:47.471Z,9.70
2017-08-16T09:33:14.995Z,10.05
2017-08-16T09:35:42.768Z,9.57
2017-08-16T09:38:10.296Z,10.00
2017-08-16T09:40:37.905Z,11.55
2017-08-16T09:43:05.672Z,11.95
2017-08-16T09:45:33.232Z,11.00
2017-08-16T09:48:00.762Z,10.55
2017-08-16T09:50:28.478Z,11.48
2017-08-16T09:52:56.037Z,10.88
2017-08-16T09:55:23.563Z,10.05
2017-08-16T09:57:51.061Z,8.95
2017-08-16T10:00:18.622Z,8.40
2017-08-16T10:02:46.157Z,7.60
2017-08-16T10:05:13.762Z,7.47
2017-08-16T10:07:41.313Z,7.65
2017-08-16T10:10:08.866Z,7.68
2017-08-16T10:12:36.456Z,7.97
2017-08-16T10:15:04.042Z,8.23
2017-08-16T10:17:31.592Z,7.43
2017-08-16T10:19:59.144Z,7.72
2017-08-16T10:22:26.706Z,8.68
2017-08-16T10:24:54.285Z,8.65
2017-08-16T10:27:21.983Z,8.02
2017-08-16T10:29:49.571Z,8.30
2017-08-16T10:32:17.155Z,8.40
2017-08-16T10:34:44.768Z,8.60
2017-08-16T10:37:12.275Z,8.60
2017-08-16T10:39:39.802Z,7.80
2017-08-16T10:42:07.509Z,8.70
2017-08-16T10:44:35.081Z,8.20
2017-08-16T10:47:02.734Z,7.80
2017-08-16T10:49:30.572Z,7.80
2017-08-16T10:51:58.127Z,7.45
2017-08-16T10:54:25.687Z,7.62
2017-08-16T10:56:53.282Z,7.60
2017-08-16T10:59:21.671Z,7.60
2017-08-16T11:01:49.252Z,8.05
2017-08-16T11:04:16.873Z,7.25
2017-08-16T11:06:44.433Z,7.45
2017-08-16T11:09:11.967Z,7.82
2017-08-16T11:11:39.502Z,8.40
2017-08-16T11:14:07.062Z,9.00
2017-08-16T11:16:34.644Z,8.02
2017-08-16T11:19:02.160Z,8.63
2017-08-16T11:21:29.710Z,7.70
2017-08-16T11:23:57.242Z,7.28
2017-08-16T11:26:24.774Z,8.52
2017-08-16T11:28:52.306Z,5.97
2017-08-16T11:31:19.852Z,5.50
2017-08-16T11:33:47.448Z,4.95
2017-08-16T11:36:14.962Z,4.95
2017-08-16T11:38:42.469Z,4.35
2017-08-16T11:41:10.112Z,4.60
2017-08-16T11:43:37.638Z,4.90
2017-08-16T11:46:05.202Z,5.28
2017-08-16T11:48:32.825Z,6.10
2017-08-16T11:51:01.264Z,6.20
2017-08-16T11:53:28.811Z,6.55
2017-08-16T11:55:56.403Z,7.07
2017-08-16T11:58:23.980Z,7.68
2017-08-16T12:00:51.515Z,7.62
2017-08-16T12:03:19.227Z,6.90
2017-08-16T12:05:46.807Z,7.80
2017-08-16T12:08:14.396Z,9.77
2017-08-16T12:10:41.971Z,8.70
2017-08-16T12:13:09.543Z,10.77
2017-08-16T12:15:37.082Z,11.12
2017-08-16T12:18:04.801Z,11.80
2017-08-16T12:20:32.377Z,14.20
2017-08-16T12:22:59.883Z,14.77
2017-08-16T12:25:27.590Z,17.12
2017-08-16T12:27:55.150Z,15.63
2017-08-16T12:30:22.688Z,16.35
2017-08-16T12:32:50.469Z,16.48
2017-08-16T12:35:18.023Z,17.58
2017-08-16T12:37:45.570Z,17.50
2017-08-16T12:40:13.111Z,17.00
2017-08-16T12:42:41.849Z,19.08
2017-08-16T12:45:09.582Z,16.90
2017-08-16T12:47:37.198Z,17.20
2017-08-16T12:50:04.745Z,16.08
2017-08-16T12:52:32.285Z,17.98
2017-08-16T12:54:59.887Z,16.35
2017-08-16T12:57:27.775Z,17.67
2017-08-16T12:59:55.331Z,17.60
2017-08-16T13:02:22.987Z,17.00
2017-08-16T13:04:50.599Z,14.87
2017-08-16T13:07:18.389Z,14.95
2017-08-16T13:09:46.034Z,16.12
2017-08-16T13:12:13.581Z,18.30
2017-08-16T13:14:41.068Z,16.48
2017-08-16T13:17:08.696Z,14.10
2017-08-16T13:19:36.238Z,12.40
2017-08-16T13:22:03.769Z,12.35
2017-08-16T13:24:31.498Z,12.60
2017-08-16T13:26:59.199Z,13.57
2017-08-16T13:29:26.805Z,16.40
2017-08-16T13:31:54.415Z,17.27
2017-08-16T13:34:23.146Z,20.30
2017-08-16T13:36:51.070Z,22.45
2017-08-16T13:39:18.718Z,20.73
2017-08-16T13:41:46.438Z,24.70
2017-08-16T13:44:14.222Z,22.83
2017-08-16T13:46:41.960Z,22.40
2017-08-16T13:49:09.499Z,25.90
2017-08-16T13:51:37.040Z,24.00
2017-08-16T13:54:04.708Z,26.23
2017-08-16T13:56:32.271Z,21.80
2017-08-16T13:58:59.860Z,19.85
2017-08-16T14:01:27.429Z,19.50
2017-08-16T14:03:54.985Z,17.95
2017-08-16T14:06:22.562Z,18.73
2017-08-16T14:08:50.123Z,19.12
2017-08-16T14:11:18.302Z,14.98
2017-08-16T14:13:46.956Z,16.12
2017-08-16T14:16:14.681Z,15.43
2017-08-16T14:18:42.248Z,14.90
2017-08-16T14:21:10.607Z,13.68
2017-08-16T14:23:38.262Z,13.13
2017-08-16T14:26:05.828Z,13.45
2017-08-16T14:28:33.414Z,13.95
2017-08-16T14:31:00.960Z,13.82
2017-08-16T14:33:28.581Z,13.90
2017-08-16T14:35:56.119Z,14.07
2017-08-16T14:38:23.739Z,13.57
2017-08-16T14:40:51.328Z,13.62
2017-08-16T14:43:18.915Z,13.73
2017-08-16T14:45:46.713Z,13.43
2017-08-16T14:48:15.395Z,12.10
2017-08-16T14:50:44.177Z,11.02
2017-08-16T14:53:12.383Z,13.25
2017-08-16T14:55:39.967Z,13.40
2017-08-16T14:58:07.537Z,13.40
2017-08-16T15:00:35.142Z,14.75
2017-08-16T15:03:02.659Z,15.30
2017-08-16T15:05:30.410Z,15.10
2017-08-16T15:07:58.064Z,16.48
2017-08-16T15:10:25.671Z,16.25
2017-08-16T15:12:53.297Z,15.13
2017-08-16T15:15:21.069Z,14.05
2017-08-16T15:17:48.603Z,13.13
2017-08-16T15:20:16.127Z,13.32
2017-08-16T15:22:43.722Z,12.98
2017-08-16T15:25:11.283Z,12.40
2017-08-16T15:27:38.805Z,12.98
2017-08-16T15:30:06.575Z,12.45
2017-08-16T15:32:34.077Z,15.52
2017-08-16T15:35:01.633Z,14.35
2017-08-16T15:37:29.225Z,16.25
2017-08-16T15:39:56.764Z,13.25
2017-08-16T15:42:24.305Z,13.50
2017-08-16T15:44:51.878Z,11.73
2017-08-16T15:47:19.417Z,12.23
2017-08-16T15:49:47.073Z,12.07
2017-08-16T15:52:14.741Z,11.35
2017-08-16T15:54:42.253Z,11.07
2017-08-16T15:57:09.793Z,11.15
2017-08-16T15:59:37.381Z,11.27
2017-08-16T16:02:04.901Z,11.40
2017-08-16T16:04:32.475Z,12.10
2017-08-16T16:07:00.228Z,13.25
2017-08-16T16:09:27.763Z,11.00
2017-08-16T16:11:55.319Z,12.20
2017-08-16T16:14:22.899Z,12.57
2017-08-16T16:16:50.645Z,12.80
2017-08-16T16:19:18.211Z,13.35
2017-08-16T16:21:45.913Z,14.40
2017-08-16T16:24:13.491Z,14.15
2017-08-16T16:26:41.125Z,14.85
2017-08-16T16:29:10.573Z,19.25
2017-08-16T16:31:38.195Z,17.77
2017-08-16T16:34:05.749Z,18.52
2017-08-16T16:36:35.592Z,17.27
2017-08-16T16:39:03.169Z,18.50
2017-08-16T16:41:30.767Z,17.25
2017-08-16T16:43:58.416Z,19.27
2017-08-16T16:46:26.026Z,19.10
2017-08-16T16:48:53.683Z,21.00
2017-08-16T16:51:22.569Z,19.35
2017-08-16T16:53:50.143Z,21.12
2017-08-16T16:56:17.778Z,21.48
2017-08-16T16:58:45.409Z,19.08
2017-08-16T17:01:13.050Z,18.65
2017-08-16T17:03:40.661Z,19.55
2017-08-16T17:06:08.263Z,19.45
2017-08-16T17:08:35.835Z,18.83
2017-08-16T17:11:03.476Z,20.27
2017-08-16T17:13:31.211Z,21.30
2017-08-16T17:15:59.333Z,20.62
2017-08-16T17:18:26.945Z,22.62
2017-08-16T17:20:54.553Z,22.15
2017-08-16T17:23:23.004Z,20.85
2017-08-16T17:25:50.593Z,22.33
2017-08-16T17:28:18.141Z,23.67
2017-08-16T17:30:45.715Z,20.48
2017-08-16T17:33:13.253Z,19.02
2017-08-16T17:35:40.938Z,20.48
2017-08-16T17:38:08.545Z,22.08
2017-08-16T17:40:36.077Z,24.27
2017-08-16T17:43:03.825Z,24.17
2017-08-16T17:45:31.898Z,24.30
2017-08-16T17:47:59.551Z,26.05
2017-08-16T17:50:27.785Z,26.80
2017-08-16T17:52:55.433Z,26.75
2017-08-16T17:55:23.071Z,28.80
2017-08-16T17:57:50.741Z,28.92
2017-08-16T18:00:18.530Z,30.15
2017-08-16T18:02:46.124Z,29.67
2017-08-16T18:05:13.789Z,32.17
2017-08-16T18:07:43.661Z,29.87
2017-08-16T18:10:12.160Z,30.20
2017-08-16T18:12:40.209Z,30.55
2017-08-16T18:15:09.464Z,30.25
2017-08-16T18:17:37.135Z,29.08
2017-08-16T18:20:06.485Z,29.67
2017-08-16T18:22:34.988Z,28.02
2017-08-16T18:25:03.452Z,27.05
2017-08-16T18:27:31.064Z,30.75
2017-08-16T18:29:58.711Z,28.12
2017-08-16T18:32:26.336Z,27.83
2017-08-16T18:34:53.958Z,28.25
2017-08-16T18:37:23.644Z,28.02
2017-08-16T18:39:52.096Z,27.30
2017-08-16T18:42:21.315Z,25.65
2017-08-16T18:44:49.031Z,26.73
2017-08-16T18:47:16.644Z,28.42
2017-08-16T18:49:45.154Z,30.25
2017-08-16T18:52:13.420Z,30.70
2017-08-16T18:54:41.396Z,31.98
2017-08-16T18:57:09.739Z,32.20
2017-08-16T18:59:38.883Z,34.28
2017-08-16T19:02:06.478Z,35.15
2017-08-16T19:04:34.162Z,36.35
2017-08-16T19:07:01.688Z,34.00
2017-08-16T19:09:29.830Z,31.00
2017-08-16T19:11:57.504Z,28.60
2017-08-16T19:14:25.119Z,30.85
2017-08-16T19:16:52.851Z,30.05
2017-08-16T19:19:20.453Z,30.55
2017-08-16T19:21:48.855Z,31.77
2017-08-16T19:24:17.214Z,29.23
2017-08-16T19:26:45.591Z,27.55
2017-08-16T19:29:14.002Z,31.50
2017-08-16T19:31:41.582Z,28.45
2017-08-16T19:34:09.196Z,26.35
2017-08-16T19:36:36.747Z,24.70
2017-08-16T19:39:04.324Z,22.40
2017-08-16T19:41:31.961Z,24.23
2017-08-16T19:43:59.782Z,22.45
2017-08-16T19:46:27.480Z,21.40
2017-08-16T19:48:55.188Z,21.60
2017-08-16T19:51:23.460Z,22.48
2017-08-16T19:53:51.790Z,25.40
2017-08-16T19:56:20.275Z,23.45
2017-08-16T19:58:47.870Z,20.83
2017-08-16T20:01:15.541Z,26.62
2017-08-16T20:03:43.330Z,23.00
2017-08-16T20:06:10.935Z,26.87
2017-08-16T20:08:39.322Z,25.80
2017-08-16T20:11:07.163Z,23.70
2017-08-16T20:13:35.114Z,24.15
2017-08-16T20:16:02.742Z,20.52
2017-08-16T20:18:32.199Z,19.60
2017-08-16T20:20:59.873Z,18.62
2017-08-16T20:23:27.938Z,19.55
2017-08-16T20:25:55.587Z,18.70
2017-08-16T20:28:24.307Z,20.50
2017-08-16T20:30:52.002Z,22.10
2017-08-16T20:33:20.128Z,20.17
2017-08-16T20:35:49.581Z,17.37
2017-08-16T20:38:18.183Z,19.05
2017-08-16T20:40:45.823Z,17.60
2017-08-16T20:43:13.386Z,18.02
2017-08-16T20:45:41.891Z,17.50
2017-08-16T20:48:10.462Z,17.60
2017-08-16T20:50:38.066Z,17.62
2017-08-16T20:53:05.643Z,18.92
2017-08-16T20:55:33.281Z,20.95
2017-08-16T20:58:01.700Z,20.50
2017-08-16T21:00:30.166Z,21.73
2017-08-16T21:02:58.299Z,22.55
2017-08-16T21:05:25.826Z,19.62
2017-08-16T21:07:53.381Z,20.90
2017-08-16T21:10:21.018Z,22.00
2017-08-16T21:12:48.612Z,21.70
2017-08-16T21:15:16.216Z,22.08
2017-08-16T21:17:43.860Z,21.23
2017-08-16T21:20:12.259Z,19.83
2017-08-16T21:22:39.791Z,21.37
2017-08-16T21:25:07.649Z,22.67
2017-08-16T21:27:35.201Z,22.40
2017-08-16T21:30:02.784Z,23.40
2017-08-16T21:32:30.439Z,23.87
2017-08-16T21:34:58.010Z,21.87
2017-08-16T21:37:25.651Z,20.62
2017-08-16T21:39:53.254Z,20.67
2017-08-16T21:42:20.872Z,22.58
2017-08-16T21:44:48.495Z,24.30
2017-08-16T21:47:16.142Z,26.65
2017-08-16T21:49:43.731Z,29.08
2017-08-16T21:52:11.288Z,26.60
2017-08-16T21:54:38.923Z,26.02
2017-08-16T21:57:06.457Z,30.92
2017-08-16T21:59:34.054Z,29.48
2017-08-16T22:02:01.690Z,29.00
2017-08-16T22:04:29.316Z,29.00
2017-08-16T22:06:56.893Z,30.30
2017-08-16T22:09:24.542Z,29.80
2017-08-16T22:11:52.151Z,30.45
2017-08-16T22:14:19.754Z,31.12
2017-08-16T22:16:47.407Z,32.15
2017-08-16T22:19:14.992Z,30.80
2017-08-16T22:21:42.574Z,30.42
2017-08-16T22:24:10.271Z,30.10
2017-08-16T22:26:37.831Z,28.20
2017-08-16T22:29:05.403Z,27.35
2017-08-16T22:31:33.246Z,27.05
2017-08-16T22:34:00.802Z,26.65
2017-08-16T22:36:29.094Z,25.55
2017-08-16T22:38:56.706Z,25.85
2017-08-16T22:41:24.267Z,26.15
2017-08-16T22:43:51.813Z,26.58
2017-08-16T22:46:19.375Z,26.67
2017-08-16T22:48:46.868Z,26.58
2017-08-16T22:51:14.466Z,25.12
2017-08-16T22:53:42.206Z,25.55
2017-08-16T22:56:09.773Z,26.33
2017-08-16T22:58:37.343Z,26.85
2017-08-16T23:01:05.123Z,27.05
2017-08-16T23:03:32.678Z,24.87
2017-08-16T23:06:00.272Z,26.58
2017-08-16T23:08:27.867Z,24.37
2017-08-16T23:10:55.380Z,23.33
2017-08-16T23:13:22.946Z,23.12
2017-08-16T23:15:50.531Z,23.85
2017-08-16T23:18:18.048Z,22.10
2017-08-16T23:20:45.586Z,22.20
2017-08-16T23:23:13.356Z,23.38
2017-08-16T23:25:40.953Z,22.13
2017-08-16T23:28:08.519Z,22.08
2017-08-16T23:30:36.084Z,24.30
2017-08-16T23:33:03.669Z,23.20
2017-08-16T23:35:31.200Z,29.60
2017-08-16T23:37:58.793Z,28.87
2017-08-16T23:40:26.352Z,28.67
2017-08-16T23:42:53.928Z,25.15
2017-08-16T23:45:21.525Z,24.15
2017-08-16T23:47:49.074Z,25.67
2017-08-16T23:50:16.663Z,24.00
2017-08-16T23:52:44.421Z,23.23
2017-08-16T23:55:11.990Z,22.45
2017-08-16T23:57:39.550Z,22.27
